GLD1793 SBJP-SBIL
Flight info
| Callsign | GLD1793 |
|---|---|
| Flight time | 1h 22m |
| Altitude | 38000 |
| Route | DCT ERIXI UZ21 ASGIK UZ73 VUREK DCT |
| Aircraft | B738/M-SDFGIRY/S |
Departure
| Time | 2026-04-26 12:42 |
|---|---|
| Airport | Presidente Castro Pinto International Airport (SBJP) |
Arrival
| Time | 2026-04-26 14:04 |
|---|---|
| Airport | Bahia - Jorge Amado Airport (SBIL) |
| Time | Latitude | Longitude | Altitude | Speed | Heading |
|---|---|---|---|---|---|
| 2026-04-26 12:20 | -7.14679 | -34.94845 | 190 ft | 0 kts | 45° |
| 2026-04-26 12:34 | -7.14690 | -34.94854 | 220 ft | 2 kts | 31° |
| 2026-04-26 12:34 | -7.14705 | -34.94861 | 220 ft | 2 kts | 12° |
| 2026-04-26 12:34 | -7.14721 | -34.94862 | 219 ft | 2 kts | 350° |
| 2026-04-26 12:35 | -7.14737 | -34.94858 | 218 ft | 2 kts | 332° |
| 2026-04-26 12:35 | -7.14751 | -34.94849 | 219 ft | 2 kts | 321° |
| 2026-04-26 12:35 | -7.14762 | -34.94839 | 220 ft | 1 kts | 313° |
| 2026-04-26 12:35 | -7.14766 | -34.94835 | 218 ft | 0 kts | 311° |
| 2026-04-26 12:36 | -7.14765 | -34.94836 | 218 ft | 1 kts | 310° |
| 2026-04-26 12:37 | -7.14764 | -34.94863 | 218 ft | 6 kts | 261° |
| 2026-04-26 12:37 | -7.14768 | -34.94910 | 219 ft | 7 kts | 289° |
| 2026-04-26 12:37 | -7.14739 | -34.94949 | 219 ft | 7 kts | 310° |
| 2026-04-26 12:37 | -7.14725 | -34.94995 | 220 ft | 7 kts | 258° |
| 2026-04-26 12:38 | -7.14755 | -34.95040 | 221 ft | 9 kts | 228° |
| 2026-04-26 12:38 | -7.14791 | -34.95094 | 219 ft | 11 kts | 257° |
| 2026-04-26 12:38 | -7.14756 | -34.95165 | 218 ft | 13 kts | 316° |
| 2026-04-26 12:38 | -7.14691 | -34.95233 | 216 ft | 14 kts | 314° |
| 2026-04-26 12:39 | -7.14619 | -34.95304 | 215 ft | 14 kts | 315° |
| 2026-04-26 12:39 | -7.14550 | -34.95374 | 215 ft | 14 kts | 315° |
| 2026-04-26 12:39 | -7.14483 | -34.95441 | 216 ft | 14 kts | 315° |
| 2026-04-26 12:39 | -7.14414 | -34.95511 | 214 ft | 14 kts | 315° |
| 2026-04-26 12:40 | -7.14348 | -34.95578 | 216 ft | 13 kts | 315° |
| 2026-04-26 12:40 | -7.14284 | -34.95642 | 222 ft | 13 kts | 315° |
| 2026-04-26 12:40 | -7.14221 | -34.95704 | 217 ft | 13 kts | 316° |
| 2026-04-26 12:40 | -7.14159 | -34.95765 | 218 ft | 12 kts | 315° |
| 2026-04-26 12:41 | -7.14092 | -34.95811 | 219 ft | 10 kts | 349° |
| 2026-04-26 12:41 | -7.14057 | -34.95852 | 220 ft | 8 kts | 239° |
| 2026-04-26 12:41 | -7.14078 | -34.95850 | 220 ft | 3 kts | 154° |
| 2026-04-26 12:41 | -7.14096 | -34.95829 | 220 ft | 5 kts | 127° |
| 2026-04-26 12:42 | -7.14121 | -34.95801 | 218 ft | 6 kts | 134° |
| 2026-04-26 12:42 | -7.14315 | -34.95608 | 217 ft | 91 kts | 135° |
| 2026-04-26 12:42 | -7.15000 | -34.94923 | 311 ft | 178 kts | 135° |
| 2026-04-26 12:42 | -7.15929 | -34.93987 | 1222 ft | 197 kts | 136° |
| 2026-04-26 12:43 | -7.16872 | -34.92995 | 2526 ft | 192 kts | 135° |
| 2026-04-26 12:43 | -7.17851 | -34.91943 | 3071 ft | 217 kts | 135° |
| 2026-04-26 12:43 | -7.18953 | -34.90850 | 3723 ft | 226 kts | 145° |
| 2026-04-26 12:43 | -7.20465 | -34.90451 | 4468 ft | 234 kts | 185° |
| 2026-04-26 12:44 | -7.21983 | -34.91108 | 5064 ft | 255 kts | 211° |
| 2026-04-26 12:44 | -7.23490 | -34.92160 | 5730 ft | 270 kts | 211° |
| 2026-04-26 12:44 | -7.25049 | -34.93235 | 6788 ft | 271 kts | 211° |
| 2026-04-26 12:44 | -7.26614 | -34.94309 | 7868 ft | 275 kts | 211° |
| 2026-04-26 12:45 | -7.28228 | -34.95405 | 8753 ft | 284 kts | 211° |
| 2026-04-26 12:45 | -7.29881 | -34.96520 | 9622 ft | 290 kts | 212° |
| 2026-04-26 12:45 | -7.31562 | -34.97648 | 9945 ft | 292 kts | 212° |
| 2026-04-26 12:45 | -7.33241 | -34.98770 | 9979 ft | 288 kts | 212° |
| 2026-04-26 12:46 | -7.34946 | -34.99905 | 10100 ft | 305 kts | 212° |
| 2026-04-26 12:46 | -7.36812 | -35.01140 | 10312 ft | 335 kts | 212° |
| 2026-04-26 12:46 | -7.38814 | -35.02464 | 10531 ft | 360 kts | 212° |
| 2026-04-26 12:46 | -7.40949 | -35.03876 | 11051 ft | 372 kts | 212° |
| 2026-04-26 12:47 | -7.43128 | -35.05319 | 11758 ft | 378 kts | 212° |
| 2026-04-26 12:47 | -7.45339 | -35.06782 | 12478 ft | 383 kts | 212° |
| 2026-04-26 12:47 | -7.47578 | -35.08263 | 13174 ft | 388 kts | 212° |
| 2026-04-26 12:47 | -7.49852 | -35.09767 | 13839 ft | 393 kts | 212° |
| 2026-04-26 12:48 | -7.52160 | -35.11293 | 14378 ft | 400 kts | 211° |
| 2026-04-26 12:48 | -7.54501 | -35.12840 | 14994 ft | 404 kts | 212° |
| 2026-04-26 12:48 | -7.56861 | -35.14400 | 15650 ft | 406 kts | 212° |
| 2026-04-26 12:48 | -7.59236 | -35.15971 | 16205 ft | 411 kts | 212° |
| 2026-04-26 12:49 | -7.61644 | -35.17563 | 16759 ft | 417 kts | 212° |
| 2026-04-26 12:49 | -7.64046 | -35.19151 | 17352 ft | 419 kts | 212° |
| 2026-04-26 12:49 | -7.66495 | -35.20771 | 17927 ft | 423 kts | 212° |
| 2026-04-26 12:49 | -7.68975 | -35.22411 | 18395 ft | 429 kts | 212° |
| 2026-04-26 12:50 | -7.71478 | -35.24067 | 18900 ft | 431 kts | 212° |
| 2026-04-26 12:50 | -7.73988 | -35.25728 | 19413 ft | 433 kts | 212° |
| 2026-04-26 12:50 | -7.76516 | -35.27401 | 19854 ft | 437 kts | 212° |
| 2026-04-26 12:50 | -7.79067 | -35.29089 | 20353 ft | 439 kts | 212° |
| 2026-04-26 12:51 | -7.81632 | -35.30787 | 20815 ft | 441 kts | 212° |
| 2026-04-26 12:51 | -7.84212 | -35.32494 | 21223 ft | 445 kts | 211° |
| 2026-04-26 12:51 | -7.86814 | -35.34217 | 21623 ft | 449 kts | 211° |
| 2026-04-26 12:51 | -7.89430 | -35.35949 | 22027 ft | 452 kts | 211° |
| 2026-04-26 12:52 | -7.92077 | -35.37702 | 22433 ft | 455 kts | 211° |
| 2026-04-26 12:52 | -7.94703 | -35.39441 | 22814 ft | 458 kts | 211° |
| 2026-04-26 12:52 | -7.97376 | -35.41212 | 23188 ft | 461 kts | 211° |
| 2026-04-26 12:52 | -8.00073 | -35.42999 | 23550 ft | 464 kts | 211° |
| 2026-04-26 12:53 | -8.02788 | -35.44798 | 23848 ft | 467 kts | 211° |
| 2026-04-26 12:53 | -8.05507 | -35.46601 | 24174 ft | 469 kts | 211° |
| 2026-04-26 12:53 | -8.08231 | -35.48407 | 24507 ft | 470 kts | 211° |
| 2026-04-26 12:53 | -8.10976 | -35.50228 | 24818 ft | 472 kts | 211° |
| 2026-04-26 12:54 | -8.13732 | -35.52055 | 25080 ft | 475 kts | 211° |
| 2026-04-26 12:54 | -8.16499 | -35.53890 | 25351 ft | 478 kts | 211° |
| 2026-04-26 12:54 | -8.19284 | -35.55738 | 25649 ft | 480 kts | 211° |
| 2026-04-26 12:54 | -8.22052 | -35.57575 | 25940 ft | 481 kts | 211° |
| 2026-04-26 12:55 | -8.24847 | -35.59430 | 26219 ft | 483 kts | 211° |
| 2026-04-26 12:55 | -8.27664 | -35.61300 | 26503 ft | 485 kts | 211° |
| 2026-04-26 12:55 | -8.30493 | -35.63177 | 26763 ft | 487 kts | 211° |
| 2026-04-26 12:55 | -8.33326 | -35.65059 | 27022 ft | 489 kts | 211° |
| 2026-04-26 12:56 | -8.36177 | -35.66951 | 27309 ft | 490 kts | 211° |
| 2026-04-26 12:56 | -8.39030 | -35.68847 | 27580 ft | 491 kts | 211° |
| 2026-04-26 12:56 | -8.41892 | -35.70748 | 27826 ft | 493 kts | 211° |
| 2026-04-26 12:56 | -8.44771 | -35.72661 | 28063 ft | 495 kts | 211° |
| 2026-04-26 12:57 | -8.47614 | -35.74550 | 28292 ft | 497 kts | 211° |
| 2026-04-26 12:57 | -8.50511 | -35.76476 | 28526 ft | 498 kts | 211° |
| 2026-04-26 12:57 | -8.53410 | -35.78403 | 28762 ft | 499 kts | 211° |
| 2026-04-26 12:58 | -8.59231 | -35.82275 | 29179 ft | 503 kts | 211° |
| 2026-04-26 12:58 | -8.62164 | -35.84226 | 29391 ft | 504 kts | 211° |
| 2026-04-26 12:58 | -8.65088 | -35.86172 | 29663 ft | 503 kts | 211° |
| 2026-04-26 12:58 | -8.68014 | -35.88119 | 29993 ft | 502 kts | 211° |
| 2026-04-26 12:59 | -8.70921 | -35.90055 | 30294 ft | 500 kts | 211° |
| 2026-04-26 12:59 | -8.73826 | -35.91989 | 30585 ft | 499 kts | 211° |
| 2026-04-26 12:59 | -8.76725 | -35.93920 | 30868 ft | 498 kts | 211° |
| 2026-04-26 12:59 | -8.79580 | -35.95821 | 31170 ft | 497 kts | 211° |
| 2026-04-26 13:00 | -8.82497 | -35.97765 | 31493 ft | 496 kts | 211° |
| 2026-04-26 13:00 | -8.85377 | -35.99683 | 31820 ft | 495 kts | 211° |
| 2026-04-26 13:00 | -8.88191 | -36.01608 | 32169 ft | 493 kts | 213° |
| 2026-04-26 13:00 | -8.90989 | -36.03585 | 32640 ft | 488 kts | 213° |
| 2026-04-26 13:01 | -8.93744 | -36.05552 | 33209 ft | 482 kts | 214° |
| 2026-04-26 13:01 | -8.96473 | -36.07498 | 33694 ft | 478 kts | 214° |
| 2026-04-26 13:01 | -8.99182 | -36.09418 | 34140 ft | 475 kts | 213° |
| 2026-04-26 13:01 | -9.01890 | -36.11330 | 34465 ft | 474 kts | 213° |
| 2026-04-26 13:02 | -9.04607 | -36.13246 | 34688 ft | 476 kts | 213° |
| 2026-04-26 13:02 | -9.07326 | -36.15163 | 34900 ft | 478 kts | 213° |
| 2026-04-26 13:02 | -9.10061 | -36.17094 | 35163 ft | 478 kts | 213° |
| 2026-04-26 13:02 | -9.12798 | -36.19028 | 35482 ft | 477 kts | 213° |
| 2026-04-26 13:03 | -9.15517 | -36.20950 | 35748 ft | 478 kts | 213° |
| 2026-04-26 13:03 | -9.18251 | -36.22883 | 35991 ft | 479 kts | 214° |
| 2026-04-26 13:03 | -9.20979 | -36.24813 | 36289 ft | 478 kts | 214° |
| 2026-04-26 13:03 | -9.23673 | -36.26718 | 36555 ft | 478 kts | 214° |
| 2026-04-26 13:04 | -9.26397 | -36.28645 | 36855 ft | 478 kts | 214° |
| 2026-04-26 13:04 | -9.29120 | -36.30572 | 37175 ft | 476 kts | 214° |
| 2026-04-26 13:04 | -9.31834 | -36.32493 | 37445 ft | 477 kts | 214° |
| 2026-04-26 13:04 | -9.34552 | -36.34417 | 37708 ft | 477 kts | 214° |
| 2026-04-26 13:05 | -9.37273 | -36.36344 | 37981 ft | 477 kts | 214° |
| 2026-04-26 13:05 | -9.40003 | -36.38277 | 38009 ft | 480 kts | 214° |
| 2026-04-26 13:05 | -9.45486 | -36.42160 | 38014 ft | 478 kts | 214° |
| 2026-04-26 13:06 | -9.50921 | -36.46013 | 38016 ft | 475 kts | 214° |
| 2026-04-26 13:06 | -9.56330 | -36.49848 | 38019 ft | 473 kts | 214° |
| 2026-04-26 13:07 | -9.61686 | -36.53647 | 38020 ft | 472 kts | 214° |
| 2026-04-26 13:07 | -9.67072 | -36.57468 | 38017 ft | 472 kts | 214° |
| 2026-04-26 13:08 | -9.72454 | -36.61301 | 38017 ft | 473 kts | 214° |
| 2026-04-26 13:08 | -9.77834 | -36.65149 | 38018 ft | 474 kts | 214° |
| 2026-04-26 13:09 | -9.83233 | -36.69012 | 38015 ft | 474 kts | 214° |
| 2026-04-26 13:09 | -9.88632 | -36.72875 | 38016 ft | 475 kts | 214° |
| 2026-04-26 13:10 | -9.94007 | -36.76719 | 38015 ft | 476 kts | 214° |
| 2026-04-26 13:10 | -9.99423 | -36.80589 | 38011 ft | 476 kts | 214° |
| 2026-04-26 13:11 | -10.04830 | -36.84454 | 38012 ft | 475 kts | 214° |
| 2026-04-26 13:11 | -10.10241 | -36.88326 | 38012 ft | 475 kts | 214° |
| 2026-04-26 13:12 | -10.15613 | -36.92172 | 38011 ft | 475 kts | 214° |
| 2026-04-26 13:12 | -10.21016 | -36.96041 | 38009 ft | 475 kts | 214° |
| 2026-04-26 13:13 | -10.25501 | -36.99255 | 38017 ft | 475 kts | 214° |
| 2026-04-26 13:13 | -10.31801 | -37.03770 | 38013 ft | 474 kts | 215° |
| 2026-04-26 13:14 | -10.36282 | -37.06984 | 38016 ft | 474 kts | 215° |
| 2026-04-26 13:14 | -10.41666 | -37.10846 | 38019 ft | 473 kts | 215° |
| 2026-04-26 13:15 | -10.47053 | -37.14712 | 38016 ft | 474 kts | 215° |
| 2026-04-26 13:15 | -10.52430 | -37.18573 | 38014 ft | 473 kts | 215° |
| 2026-04-26 13:16 | -10.57812 | -37.22438 | 38021 ft | 473 kts | 215° |
| 2026-04-26 13:16 | -10.63167 | -37.26243 | 38009 ft | 472 kts | 211° |
| 2026-04-26 13:17 | -10.69154 | -37.28917 | 38022 ft | 471 kts | 199° |
| 2026-04-26 13:17 | -10.72242 | -37.30042 | 38019 ft | 471 kts | 199° |
| 2026-04-26 13:18 | -10.81498 | -37.33421 | 38009 ft | 471 kts | 200° |
| 2026-04-26 13:19 | -10.90716 | -37.36887 | 38012 ft | 471 kts | 200° |
| 2026-04-26 13:19 | -10.96851 | -37.39212 | 38017 ft | 470 kts | 200° |
| 2026-04-26 13:20 | -11.02983 | -37.41538 | 38018 ft | 470 kts | 200° |
| 2026-04-26 13:20 | -11.09083 | -37.43850 | 38015 ft | 470 kts | 200° |
| 2026-04-26 13:21 | -11.15211 | -37.46174 | 38019 ft | 469 kts | 200° |
| 2026-04-26 13:21 | -11.21330 | -37.48495 | 38012 ft | 469 kts | 200° |
| 2026-04-26 13:22 | -11.27441 | -37.50814 | 38012 ft | 468 kts | 200° |
| 2026-04-26 13:22 | -11.33557 | -37.53135 | 38019 ft | 468 kts | 200° |
| 2026-04-26 13:23 | -11.39666 | -37.55455 | 38013 ft | 468 kts | 200° |
| 2026-04-26 13:23 | -11.45732 | -37.57760 | 38018 ft | 467 kts | 200° |
| 2026-04-26 13:24 | -11.51821 | -37.60076 | 38015 ft | 467 kts | 200° |
| 2026-04-26 13:24 | -11.57949 | -37.62406 | 38017 ft | 467 kts | 200° |
| 2026-04-26 13:25 | -11.63996 | -37.64707 | 38022 ft | 467 kts | 200° |
| 2026-04-26 13:25 | -11.70080 | -37.67023 | 38019 ft | 465 kts | 200° |
| 2026-04-26 13:26 | -11.76143 | -37.69332 | 38014 ft | 464 kts | 200° |
| 2026-04-26 13:26 | -11.82191 | -37.71637 | 38020 ft | 464 kts | 200° |
| 2026-04-26 13:27 | -11.88236 | -37.73942 | 38018 ft | 464 kts | 200° |
| 2026-04-26 13:27 | -11.94292 | -37.76252 | 38026 ft | 463 kts | 200° |
| 2026-04-26 13:28 | -12.00326 | -37.78554 | 38016 ft | 462 kts | 200° |
| 2026-04-26 13:28 | -12.06344 | -37.80852 | 38016 ft | 461 kts | 200° |
| 2026-04-26 13:29 | -12.12354 | -37.83147 | 38023 ft | 461 kts | 200° |
| 2026-04-26 13:29 | -12.18360 | -37.85443 | 38021 ft | 461 kts | 200° |
| 2026-04-26 13:30 | -12.24364 | -37.87738 | 38023 ft | 460 kts | 200° |
| 2026-04-26 13:30 | -12.30368 | -37.90035 | 38024 ft | 460 kts | 200° |
| 2026-04-26 13:31 | -12.36368 | -37.92331 | 38021 ft | 461 kts | 200° |
| 2026-04-26 13:31 | -12.42377 | -37.94632 | 38023 ft | 460 kts | 200° |
| 2026-04-26 13:32 | -12.48381 | -37.96932 | 38021 ft | 461 kts | 200° |
| 2026-04-26 13:32 | -12.54357 | -37.99222 | 38030 ft | 462 kts | 200° |
| 2026-04-26 13:33 | -12.60376 | -38.01530 | 38024 ft | 462 kts | 200° |
| 2026-04-26 13:33 | -12.66401 | -38.03842 | 38022 ft | 462 kts | 200° |
| 2026-04-26 13:34 | -12.72424 | -38.06154 | 38028 ft | 462 kts | 200° |
| 2026-04-26 13:34 | -12.78449 | -38.08468 | 38032 ft | 462 kts | 200° |
| 2026-04-26 13:35 | -12.84475 | -38.10783 | 38043 ft | 462 kts | 200° |
| 2026-04-26 13:35 | -12.90498 | -38.13099 | 38039 ft | 462 kts | 200° |
| 2026-04-26 13:36 | -12.96517 | -38.15414 | 38043 ft | 462 kts | 200° |
| 2026-04-26 13:36 | -13.02548 | -38.17735 | 38043 ft | 462 kts | 200° |
| 2026-04-26 13:37 | -13.08570 | -38.20054 | 38035 ft | 463 kts | 201° |
| 2026-04-26 13:37 | -13.14604 | -38.22378 | 38039 ft | 463 kts | 201° |
| 2026-04-26 13:38 | -13.20648 | -38.24708 | 38031 ft | 464 kts | 201° |
| 2026-04-26 13:38 | -13.26682 | -38.27035 | 38029 ft | 464 kts | 201° |
| 2026-04-26 13:39 | -13.32726 | -38.29367 | 38026 ft | 464 kts | 201° |
| 2026-04-26 13:39 | -13.38724 | -38.31683 | 38027 ft | 464 kts | 201° |
| 2026-04-26 13:40 | -13.44760 | -38.34014 | 38029 ft | 463 kts | 201° |
| 2026-04-26 13:40 | -13.50800 | -38.36349 | 38026 ft | 463 kts | 201° |
| 2026-04-26 13:41 | -13.56838 | -38.38684 | 38029 ft | 463 kts | 201° |
| 2026-04-26 13:41 | -13.59884 | -38.39862 | 37470 ft | 470 kts | 201° |
| 2026-04-26 13:41 | -13.62930 | -38.41041 | 36832 ft | 466 kts | 201° |
| 2026-04-26 13:41 | -13.65964 | -38.42216 | 36147 ft | 465 kts | 201° |
| 2026-04-26 13:42 | -13.68994 | -38.43389 | 35399 ft | 466 kts | 201° |
| 2026-04-26 13:42 | -13.72011 | -38.44557 | 34597 ft | 469 kts | 200° |
| 2026-04-26 13:42 | -13.75071 | -38.45743 | 33726 ft | 472 kts | 200° |
| 2026-04-26 13:42 | -13.78157 | -38.46939 | 32792 ft | 475 kts | 200° |
| 2026-04-26 13:43 | -13.81256 | -38.48141 | 31872 ft | 477 kts | 200° |
| 2026-04-26 13:43 | -13.84372 | -38.49349 | 30912 ft | 480 kts | 200° |
| 2026-04-26 13:43 | -13.87501 | -38.50598 | 29865 ft | 484 kts | 202° |
| 2026-04-26 13:43 | -13.90503 | -38.52222 | 28634 ft | 489 kts | 211° |
| 2026-04-26 13:44 | -13.93224 | -38.54332 | 27398 ft | 493 kts | 219° |
| 2026-04-26 13:44 | -13.95868 | -38.56611 | 26159 ft | 496 kts | 219° |
| 2026-04-26 13:44 | -13.98510 | -38.58890 | 25020 ft | 497 kts | 219° |
| 2026-04-26 13:44 | -14.01155 | -38.61156 | 24139 ft | 491 kts | 219° |
| 2026-04-26 13:45 | -14.03773 | -38.63384 | 23320 ft | 484 kts | 219° |
| 2026-04-26 13:45 | -14.06355 | -38.65569 | 22415 ft | 476 kts | 218° |
| 2026-04-26 13:45 | -14.08903 | -38.67719 | 21519 ft | 470 kts | 218° |
| 2026-04-26 13:45 | -14.11421 | -38.69839 | 20608 ft | 465 kts | 218° |
| 2026-04-26 13:46 | -14.13916 | -38.71941 | 19755 ft | 460 kts | 218° |
| 2026-04-26 13:46 | -14.16355 | -38.73995 | 18943 ft | 455 kts | 218° |
| 2026-04-26 13:46 | -14.18819 | -38.76072 | 18114 ft | 449 kts | 218° |
| 2026-04-26 13:46 | -14.21189 | -38.78071 | 17263 ft | 443 kts | 218° |
| 2026-04-26 13:47 | -14.23555 | -38.80067 | 16478 ft | 436 kts | 218° |
| 2026-04-26 13:47 | -14.25884 | -38.82032 | 15707 ft | 429 kts | 219° |
| 2026-04-26 13:47 | -14.28189 | -38.83978 | 14934 ft | 424 kts | 219° |
| 2026-04-26 13:47 | -14.30453 | -38.85890 | 14186 ft | 418 kts | 219° |
| 2026-04-26 13:48 | -14.32685 | -38.87774 | 13409 ft | 413 kts | 220° |
| 2026-04-26 13:48 | -14.34893 | -38.89640 | 12644 ft | 406 kts | 219° |
| 2026-04-26 13:48 | -14.37058 | -38.91471 | 11962 ft | 398 kts | 219° |
| 2026-04-26 13:48 | -14.39164 | -38.93253 | 11555 ft | 384 kts | 219° |
| 2026-04-26 13:49 | -14.41176 | -38.94955 | 11426 ft | 363 kts | 219° |
| 2026-04-26 13:49 | -14.43084 | -38.96570 | 11303 ft | 346 kts | 219° |
| 2026-04-26 13:49 | -14.44899 | -38.98106 | 11200 ft | 330 kts | 219° |
| 2026-04-26 13:49 | -14.46632 | -38.99572 | 11107 ft | 315 kts | 219° |
| 2026-04-26 13:50 | -14.48291 | -39.00977 | 11023 ft | 301 kts | 219° |
| 2026-04-26 13:50 | -14.49870 | -39.02314 | 10675 ft | 289 kts | 219° |
| 2026-04-26 13:50 | -14.51419 | -39.03626 | 10128 ft | 288 kts | 219° |
| 2026-04-26 13:50 | -14.52969 | -39.04938 | 9614 ft | 289 kts | 219° |
| 2026-04-26 13:51 | -14.54515 | -39.06248 | 9292 ft | 282 kts | 219° |
| 2026-04-26 13:51 | -14.56017 | -39.07521 | 8712 ft | 280 kts | 218° |
| 2026-04-26 13:51 | -14.57525 | -39.08799 | 8099 ft | 280 kts | 218° |
| 2026-04-26 13:51 | -14.59000 | -39.10028 | 7726 ft | 272 kts | 215° |
| 2026-04-26 13:52 | -14.60585 | -39.11013 | 7387 ft | 262 kts | 204° |
| 2026-04-26 13:52 | -14.62267 | -39.11665 | 7090 ft | 258 kts | 196° |
| 2026-04-26 13:52 | -14.64018 | -39.12199 | 6798 ft | 267 kts | 195° |
| 2026-04-26 13:52 | -14.65848 | -39.12748 | 6256 ft | 278 kts | 196° |
| 2026-04-26 13:53 | -14.67637 | -39.13520 | 5879 ft | 279 kts | 206° |
| 2026-04-26 13:53 | -14.69260 | -39.14609 | 5550 ft | 278 kts | 217° |
| 2026-04-26 13:53 | -14.70671 | -39.15977 | 5190 ft | 279 kts | 227° |
| 2026-04-26 13:53 | -14.71826 | -39.17587 | 4851 ft | 279 kts | 237° |
| 2026-04-26 13:54 | -14.72677 | -39.19373 | 4574 ft | 276 kts | 248° |
| 2026-04-26 13:54 | -14.73185 | -39.21250 | 4459 ft | 267 kts | 259° |
| 2026-04-26 13:54 | -14.73349 | -39.23102 | 4406 ft | 252 kts | 267° |
| 2026-04-26 13:55 | -14.73383 | -39.26515 | 4221 ft | 226 kts | 268° |
| 2026-04-26 13:55 | -14.73385 | -39.27571 | 4142 ft | 218 kts | 268° |
| 2026-04-26 13:55 | -14.73922 | -39.30908 | 3966 ft | 191 kts | 242° |
| 2026-04-26 13:56 | -14.74648 | -39.32050 | 3972 ft | 191 kts | 227° |
| 2026-04-26 13:56 | -14.75628 | -39.32957 | 3965 ft | 188 kts | 212° |
| 2026-04-26 13:56 | -14.76770 | -39.33553 | 3978 ft | 180 kts | 197° |
| 2026-04-26 13:56 | -14.77952 | -39.33794 | 3968 ft | 167 kts | 181° |
| 2026-04-26 13:57 | -14.79085 | -39.33677 | 3974 ft | 163 kts | 164° |
| 2026-04-26 13:57 | -14.80119 | -39.33221 | 3967 ft | 162 kts | 147° |
| 2026-04-26 13:57 | -14.80978 | -39.32459 | 3982 ft | 164 kts | 130° |
| 2026-04-26 13:57 | -14.81579 | -39.31474 | 3976 ft | 166 kts | 114° |
| 2026-04-26 13:58 | -14.81882 | -39.30326 | 3982 ft | 167 kts | 97° |
| 2026-04-26 13:58 | -14.81890 | -39.29125 | 3977 ft | 168 kts | 89° |
| 2026-04-26 13:58 | -14.81833 | -39.27915 | 3859 ft | 170 kts | 89° |
| 2026-04-26 13:58 | -14.81804 | -39.26707 | 3752 ft | 166 kts | 90° |
| 2026-04-26 13:59 | -14.81789 | -39.25530 | 3631 ft | 163 kts | 90° |
| 2026-04-26 13:59 | -14.81811 | -39.24353 | 3456 ft | 164 kts | 94° |
| 2026-04-26 13:59 | -14.81851 | -39.23574 | 3335 ft | 164 kts | 94° |
| 2026-04-26 14:00 | -14.82015 | -39.20114 | 2820 ft | 155 kts | 91° |
| 2026-04-26 14:00 | -14.82006 | -39.19014 | 2621 ft | 151 kts | 90° |
| 2026-04-26 14:00 | -14.81992 | -39.18286 | 2508 ft | 149 kts | 90° |
| 2026-04-26 14:01 | -14.81960 | -39.16850 | 2307 ft | 153 kts | 89° |
| 2026-04-26 14:01 | -14.81932 | -39.15755 | 2133 ft | 152 kts | 89° |
| 2026-04-26 14:01 | -14.81902 | -39.14682 | 2020 ft | 144 kts | 89° |
| 2026-04-26 14:01 | -14.81875 | -39.13663 | 1864 ft | 141 kts | 89° |
| 2026-04-26 14:02 | -14.81847 | -39.12661 | 1718 ft | 137 kts | 89° |
| 2026-04-26 14:02 | -14.81820 | -39.11667 | 1504 ft | 137 kts | 89° |
| 2026-04-26 14:02 | -14.81793 | -39.10705 | 1319 ft | 132 kts | 90° |
| 2026-04-26 14:02 | -14.81768 | -39.09767 | 1151 ft | 130 kts | 90° |
| 2026-04-26 14:03 | -14.81742 | -39.08841 | 989 ft | 132 kts | 90° |
| 2026-04-26 14:03 | -14.81717 | -39.07884 | 813 ft | 131 kts | 90° |
| 2026-04-26 14:03 | -14.81692 | -39.06950 | 640 ft | 130 kts | 89° |
| 2026-04-26 14:03 | -14.81666 | -39.06020 | 442 ft | 128 kts | 89° |
| 2026-04-26 14:04 | -14.81646 | -39.05113 | 272 ft | 129 kts | 89° |
| 2026-04-26 14:04 | -14.81614 | -39.04182 | 64 ft | 127 kts | 89° |
| 2026-04-26 14:04 | -14.81591 | -39.03346 | 14 ft | 96 kts | 89° |
| 2026-04-26 14:04 | -14.81581 | -39.02875 | 13 ft | 38 kts | 89° |
| 2026-04-26 14:05 | -14.81585 | -39.02679 | 17 ft | 20 kts | 111° |
| 2026-04-26 14:05 | -14.81563 | -39.02610 | 20 ft | 10 kts | 328° |
| 2026-04-26 14:05 | -14.81564 | -39.02678 | 18 ft | 11 kts | 258° |
| 2026-04-26 14:05 | -14.81574 | -39.02763 | 14 ft | 14 kts | 266° |
| 2026-04-26 14:06 | -14.81578 | -39.02871 | 16 ft | 15 kts | 268° |
| 2026-04-26 14:06 | -14.81581 | -39.02980 | 13 ft | 15 kts | 268° |
| 2026-04-26 14:06 | -14.81569 | -39.03067 | 14 ft | 5 kts | 304° |
| 2026-04-26 14:06 | -14.81544 | -39.03083 | 12 ft | 10 kts | 341° |
| 2026-04-26 14:07 | -14.81504 | -39.03086 | 12 ft | 2 kts | 348° |
| 2026-04-26 14:07 | -14.81485 | -39.03112 | 13 ft | 7 kts | 286° |
| 2026-04-26 14:07 | -14.81482 | -39.03143 | 13 ft | 0 kts | 275° |
| 2026-04-26 14:07 | -14.81481 | -39.03153 | 14 ft | 7 kts | 274° |
| 2026-04-26 14:08 | -14.81464 | -39.03176 | 14 ft | 4 kts | 348° |
| 2026-04-26 14:08 | -14.81456 | -39.03178 | 15 ft | 1 kts | 352° |
| 2026-04-26 14:08 | -14.81455 | -39.03178 | 15 ft | 0 kts | 353° |